createdAt,value
2019-02-19T00:00:05.203Z,82.00
2019-02-19T00:02:33.271Z,81.10
2019-02-19T00:04:59.419Z,81.30
2019-02-19T00:07:25.716Z,81.70
2019-02-19T00:09:51.875Z,81.50
2019-02-19T00:12:18.048Z,81.80
2019-02-19T00:14:44.239Z,82.10
2019-02-19T00:17:10.400Z,82.00
2019-02-19T00:19:36.615Z,82.10
2019-02-19T00:22:03.264Z,82.20
2019-02-19T00:24:29.419Z,82.50
2019-02-19T00:26:55.611Z,82.70
2019-02-19T00:29:22.776Z,82.90
2019-02-19T00:31:48.936Z,83.00
2019-02-19T00:34:15.109Z,83.30
2019-02-19T00:36:41.307Z,83.70
2019-02-19T00:39:07.474Z,83.70
2019-02-19T00:41:33.928Z,83.60
2019-02-19T00:44:00.112Z,84.10
2019-02-19T00:46:26.255Z,83.70
2019-02-19T00:48:52.427Z,83.70
2019-02-19T00:51:18.621Z,83.80
2019-02-19T00:53:44.832Z,83.90
2019-02-19T00:56:10.999Z,83.60
2019-02-19T00:58:37.171Z,83.30
2019-02-19T01:01:03.323Z,83.60
2019-02-19T01:03:29.512Z,83.80
2019-02-19T01:05:55.687Z,83.50
2019-02-19T01:08:22.175Z,83.60
2019-02-19T01:10:48.339Z,83.50
2019-02-19T01:13:14.493Z,83.50
2019-02-19T01:15:40.663Z,83.40
2019-02-19T01:18:06.817Z,83.30
2019-02-19T01:20:33.011Z,83.00
2019-02-19T01:22:59.164Z,82.70
2019-02-19T01:25:25.324Z,82.20
2019-02-19T01:27:51.499Z,81.70
2019-02-19T01:30:17.650Z,81.20
2019-02-19T01:32:43.820Z,80.90
2019-02-19T01:35:09.989Z,80.90
2019-02-19T01:37:36.163Z,80.80
2019-02-19T01:40:04.523Z,80.60
2019-02-19T01:42:30.700Z,80.80
2019-02-19T01:44:56.855Z,81.20
2019-02-19T01:47:25.050Z,81.80
2019-02-19T01:49:51.306Z,82.80
2019-02-19T01:52:17.488Z,82.30
2019-02-19T01:54:43.639Z,82.50
2019-02-19T01:57:09.808Z,82.30
2019-02-19T01:59:35.965Z,82.50
2019-02-19T02:02:02.123Z,82.30
2019-02-19T02:04:28.320Z,82.40
2019-02-19T02:06:54.483Z,82.10
2019-02-19T02:09:20.669Z,82.10
2019-02-19T02:11:46.823Z,82.20
2019-02-19T02:14:13.020Z,82.10
2019-02-19T02:16:39.168Z,82.20
2019-02-19T02:19:05.329Z,82.30
2019-02-19T02:21:31.536Z,82.60
2019-02-19T02:23:57.699Z,83.00
2019-02-19T02:26:23.839Z,84.10
2019-02-19T02:28:50.007Z,83.10
2019-02-19T02:31:16.165Z,83.20
2019-02-19T02:33:42.458Z,83.30
2019-02-19T02:36:08.724Z,83.50
2019-02-19T02:38:34.925Z,83.30
2019-02-19T02:41:02.009Z,83.80
2019-02-19T02:43:28.208Z,84.40
2019-02-19T02:45:54.367Z,84.40
2019-02-19T02:48:20.693Z,84.20
2019-02-19T02:50:46.840Z,84.10
2019-02-19T02:53:13.004Z,84.60
2019-02-19T02:55:39.204Z,85.10
2019-02-19T02:58:05.359Z,84.60
2019-02-19T03:00:31.519Z,84.40
2019-02-19T03:02:57.707Z,84.10
2019-02-19T03:05:25.355Z,83.50
2019-02-19T03:07:53.643Z,83.10
2019-02-19T03:10:19.819Z,82.80
2019-02-19T03:12:45.991Z,83.10
2019-02-19T03:15:12.609Z,83.10
2019-02-19T03:17:38.785Z,83.10
2019-02-19T03:20:06.042Z,82.80
2019-02-19T03:22:32.210Z,83.10
2019-02-19T03:25:00.371Z,83.00
2019-02-19T03:27:26.818Z,83.10
2019-02-19T03:29:52.983Z,83.80
2019-02-19T03:32:19.242Z,83.60
2019-02-19T03:34:45.434Z,83.50
2019-02-19T03:37:11.604Z,83.40
2019-02-19T03:39:37.772Z,83.90
2019-02-19T03:42:03.954Z,83.80
2019-02-19T03:44:30.144Z,83.50
2019-02-19T03:46:56.316Z,83.90
2019-02-19T03:49:22.472Z,85.10
2019-02-19T03:51:48.643Z,84.80
2019-02-19T03:54:14.800Z,85.10
2019-02-19T03:56:40.994Z,85.10
2019-02-19T03:59:07.592Z,84.70
2019-02-19T04:01:33.754Z,84.90
2019-02-19T04:04:00.032Z,84.90
2019-02-19T04:06:26.191Z,85.20
2019-02-19T04:08:52.340Z,85.60
2019-02-19T04:11:18.531Z,85.50
2019-02-19T04:13:44.709Z,85.50
2019-02-19T04:16:10.864Z,85.50
2019-02-19T04:18:40.194Z,85.90
2019-02-19T04:21:06.425Z,85.60
2019-02-19T04:23:32.564Z,85.30
2019-02-19T04:25:58.779Z,85.10
2019-02-19T04:28:25.035Z,85.50
2019-02-19T04:30:51.213Z,85.70
2019-02-19T04:33:17.437Z,85.80
2019-02-19T04:35:43.616Z,86.10
2019-02-19T04:38:09.804Z,85.80
2019-02-19T04:40:35.972Z,85.50
2019-02-19T04:43:02.125Z,85.70
2019-02-19T04:45:28.311Z,86.20
2019-02-19T04:47:56.052Z,86.50
2019-02-19T04:50:22.208Z,87.00
2019-02-19T04:52:48.429Z,86.70
2019-02-19T04:55:14.583Z,85.70
2019-02-19T04:57:40.764Z,86.10
2019-02-19T05:00:10.245Z,86.50
2019-02-19T05:02:36.392Z,86.50
2019-02-19T05:05:03.793Z,86.20
2019-02-19T05:07:29.948Z,86.30
2019-02-19T05:09:56.104Z,87.00
2019-02-19T05:12:22.304Z,87.00
2019-02-19T05:14:48.464Z,87.10
2019-02-19T05:17:16.339Z,87.20
2019-02-19T05:19:42.697Z,87.40
2019-02-19T05:22:08.855Z,87.10
2019-02-19T05:24:35.029Z,87.50
2019-02-19T05:27:01.188Z,87.70
2019-02-19T05:29:27.357Z,87.50
2019-02-19T05:31:53.511Z,87.10
2019-02-19T05:34:19.681Z,86.80
2019-02-19T05:36:45.837Z,86.90
2019-02-19T05:39:12.004Z,87.10
2019-02-19T05:41:38.171Z,86.50
2019-02-19T05:44:04.372Z,85.20
2019-02-19T05:46:30.605Z,85.50
2019-02-19T05:48:56.839Z,85.20
2019-02-19T05:51:23.183Z,85.10
2019-02-19T05:53:49.332Z,85.70
2019-02-19T05:56:15.524Z,85.70
2019-02-19T05:58:41.678Z,86.30
2019-02-19T06:01:07.853Z,86.50
2019-02-19T06:03:34.004Z,86.00
2019-02-19T06:06:00.177Z,86.10
2019-02-19T06:08:26.326Z,86.00
2019-02-19T06:10:52.487Z,85.50
2019-02-19T06:13:18.647Z,86.00
2019-02-19T06:15:44.808Z,86.30
2019-02-19T06:18:11.043Z,87.10
2019-02-19T06:20:37.397Z,87.00
2019-02-19T06:23:03.595Z,86.90
2019-02-19T06:25:29.826Z,86.70
2019-02-19T06:27:56.176Z,86.70
2019-02-19T06:30:22.383Z,87.10
2019-02-19T06:32:48.564Z,87.20
2019-02-19T06:35:14.715Z,86.60
2019-02-19T06:37:40.883Z,86.40
2019-02-19T06:40:24.465Z,86.10
2019-02-19T06:42:50.504Z,85.70
2019-02-19T06:45:16.682Z,86.70
2019-02-19T06:47:42.839Z,86.10
2019-02-19T06:50:09.027Z,86.30
2019-02-19T06:52:35.183Z,86.30
2019-02-19T06:55:01.352Z,86.00
2019-02-19T06:57:27.503Z,85.20
2019-02-19T06:59:53.699Z,85.70
2019-02-19T07:02:26.160Z,85.80
2019-02-19T07:04:52.624Z,86.00
2019-02-19T07:07:18.796Z,87.10
2019-02-19T07:09:44.959Z,86.40
2019-02-19T07:12:11.136Z,85.70
2019-02-19T07:14:37.292Z,85.00
2019-02-19T07:17:03.464Z,84.90
2019-02-19T07:19:29.660Z,85.00
2019-02-19T07:21:55.811Z,84.10
2019-02-19T07:24:21.979Z,82.80
2019-02-19T07:26:48.127Z,82.20
2019-02-19T07:29:15.125Z,80.90
2019-02-19T07:31:41.419Z,79.50
2019-02-19T07:34:07.603Z,79.00
2019-02-19T07:36:33.777Z,78.60
2019-02-19T07:38:59.951Z,77.80
2019-02-19T07:41:26.149Z,76.00
2019-02-19T07:43:54.164Z,74.30
2019-02-19T07:46:20.536Z,72.80
2019-02-19T07:48:46.707Z,71.20
2019-02-19T07:51:12.883Z,69.60
2019-02-19T07:53:39.039Z,67.70
2019-02-19T07:56:05.224Z,66.20
2019-02-19T07:58:31.403Z,63.40
2019-02-19T08:00:57.626Z,60.70
2019-02-19T08:03:23.783Z,59.30
2019-02-19T08:05:49.959Z,55.80
2019-02-19T08:08:16.125Z,51.20
2019-02-19T08:10:42.313Z,45.40
2019-02-19T08:13:08.637Z,41.60
2019-02-19T08:15:34.788Z,39.60
2019-02-19T08:18:00.948Z,40.40
2019-02-19T08:20:27.130Z,38.40
2019-02-19T08:22:53.312Z,36.10
2019-02-19T08:25:19.464Z,34.40
2019-02-19T08:27:45.741Z,33.40
2019-02-19T08:30:11.889Z,35.70
2019-02-19T08:32:38.072Z,36.20
2019-02-19T08:35:05.502Z,35.50
2019-02-19T08:37:31.663Z,34.40
2019-02-19T08:40:00.759Z,34.80
2019-02-19T08:42:27.217Z,36.30
2019-02-19T08:44:53.399Z,35.20
2019-02-19T08:47:19.548Z,34.60
2019-02-19T08:49:45.736Z,33.90
2019-02-19T08:52:11.896Z,32.20
2019-02-19T08:54:38.068Z,30.40
2019-02-19T08:57:04.253Z,30.00
2019-02-19T08:59:30.418Z,28.60
2019-02-19T09:01:56.591Z,27.30
2019-02-19T09:04:23.042Z,27.80
2019-02-19T09:06:49.226Z,27.90
2019-02-19T09:09:15.400Z,28.90
2019-02-19T09:11:41.632Z,28.30
2019-02-19T09:14:07.807Z,29.30
2019-02-19T09:16:33.962Z,28.80
2019-02-19T09:19:00.135Z,28.10
2019-02-19T09:21:26.280Z,27.80
2019-02-19T09:23:52.461Z,27.30
2019-02-19T09:26:19.618Z,26.60
2019-02-19T09:28:45.793Z,25.60
2019-02-19T09:31:12.075Z,26.30
2019-02-19T09:33:38.312Z,26.20
2019-02-19T09:36:04.468Z,26.70
2019-02-19T09:38:30.631Z,25.60
2019-02-19T09:40:56.807Z,26.60
2019-02-19T09:43:22.972Z,26.90
2019-02-19T09:45:49.146Z,26.70
2019-02-19T09:48:15.322Z,26.60
2019-02-19T09:50:42.604Z,26.00
2019-02-19T09:53:08.752Z,26.00
2019-02-19T09:55:34.951Z,25.70
2019-02-19T09:58:01.113Z,24.80
2019-02-19T10:00:27.326Z,24.90
2019-02-19T10:02:53.473Z,23.40
2019-02-19T10:05:19.954Z,23.60
2019-02-19T10:07:46.148Z,23.90
2019-02-19T10:10:16.128Z,25.00
2019-02-19T10:12:42.372Z,25.90
2019-02-19T10:15:10.941Z,25.70
2019-02-19T10:17:37.112Z,27.20
2019-02-19T10:20:05.696Z,27.50
2019-02-19T10:22:31.857Z,28.30
2019-02-19T10:25:00.944Z,29.00
2019-02-19T10:27:27.156Z,29.20
2019-02-19T10:29:53.399Z,28.50
2019-02-19T10:32:19.581Z,27.60
2019-02-19T10:34:46.113Z,28.70
2019-02-19T10:37:12.331Z,29.10
2019-02-19T10:39:38.688Z,29.00
2019-02-19T10:42:04.864Z,29.60
2019-02-19T10:44:31.149Z,29.90
2019-02-19T10:46:57.364Z,29.70
2019-02-19T10:49:24.639Z,28.20
2019-02-19T10:51:50.824Z,28.90
2019-02-19T10:54:17.169Z,28.10
2019-02-19T10:56:43.644Z,28.40
2019-02-19T10:59:09.807Z,28.50
2019-02-19T11:01:36.273Z,29.20
2019-02-19T11:04:02.457Z,28.40
2019-02-19T11:06:29.025Z,29.40
2019-02-19T11:08:55.204Z,29.70
2019-02-19T11:11:21.390Z,29.40
2019-02-19T11:13:47.579Z,31.10
2019-02-19T11:16:13.789Z,32.50
2019-02-19T11:18:39.982Z,33.10
2019-02-19T11:21:06.147Z,32.50
2019-02-19T11:23:33.708Z,32.00
2019-02-19T11:26:00.094Z,32.00
2019-02-19T11:28:26.260Z,32.00
2019-02-19T11:30:52.457Z,33.80
2019-02-19T11:33:18.635Z,33.10
2019-02-19T11:35:44.830Z,32.40
2019-02-19T11:38:11.055Z,32.00
2019-02-19T11:40:37.245Z,33.90
2019-02-19T11:43:03.404Z,36.40
2019-02-19T11:45:29.608Z,37.40
2019-02-19T11:47:55.824Z,38.20
2019-02-19T11:50:21.997Z,38.80
2019-02-19T11:52:48.291Z,39.40
2019-02-19T11:55:16.887Z,39.10
2019-02-19T11:57:43.084Z,39.60
2019-02-19T12:00:13.461Z,40.20
2019-02-19T12:02:39.728Z,40.80
2019-02-19T12:05:07.005Z,40.50
2019-02-19T12:07:33.376Z,40.50
2019-02-19T12:09:59.549Z,40.60
2019-02-19T12:12:25.740Z,40.50
2019-02-19T12:14:51.916Z,40.70
2019-02-19T12:17:18.137Z,40.80
2019-02-19T12:19:45.325Z,40.90
2019-02-19T12:22:12.625Z,41.10
2019-02-19T12:24:39.478Z,41.80
2019-02-19T12:27:08.382Z,41.90
2019-02-19T12:29:33.748Z,43.00
2019-02-19T12:31:59.997Z,43.30
2019-02-19T12:34:26.195Z,42.90
2019-02-19T12:36:52.357Z,42.30
2019-02-19T12:39:18.900Z,42.30
2019-02-19T12:41:45.118Z,42.80
2019-02-19T12:44:11.289Z,42.30
2019-02-19T12:46:37.512Z,41.70
2019-02-19T12:49:03.797Z,41.70
2019-02-19T12:51:30.001Z,41.90
2019-02-19T12:53:56.352Z,42.10
2019-02-19T12:56:22.526Z,42.30
2019-02-19T12:58:48.704Z,42.00
2019-02-19T13:01:16.107Z,41.60
2019-02-19T13:03:42.509Z,42.50
2019-02-19T13:06:11.173Z,43.10
2019-02-19T13:08:37.372Z,43.80
2019-02-19T13:11:03.585Z,43.10
2019-02-19T13:13:31.657Z,43.70
2019-02-19T13:15:57.889Z,42.70
2019-02-19T13:18:24.060Z,42.10
2019-02-19T13:20:50.237Z,41.70
2019-02-19T13:23:17.250Z,42.00
2019-02-19T13:25:43.456Z,43.20
2019-02-19T13:28:09.617Z,43.30
2019-02-19T13:30:35.819Z,42.80
2019-02-19T13:33:01.985Z,43.30
2019-02-19T13:35:28.147Z,43.40
2019-02-19T13:37:54.327Z,42.30
2019-02-19T13:40:20.727Z,42.40
2019-02-19T13:42:46.964Z,42.60
2019-02-19T13:45:13.841Z,42.00
2019-02-19T13:47:40.160Z,41.30
2019-02-19T13:50:14.061Z,41.60
2019-02-19T13:52:46.696Z,41.90
2019-02-19T13:55:16.221Z,42.00
2019-02-19T13:57:43.716Z,42.50
2019-02-19T14:00:12.701Z,41.90
2019-02-19T14:02:39.263Z,42.00
2019-02-19T14:05:08.522Z,43.10
2019-02-19T14:07:36.643Z,43.20
2019-02-19T14:10:07.665Z,43.60
2019-02-19T14:12:34.043Z,44.40
2019-02-19T14:15:39.872Z,43.60
2019-02-19T14:18:07.985Z,44.10
2019-02-19T14:20:47.842Z,43.10
2019-02-19T14:23:25.077Z,43.30
2019-02-19T14:25:53.267Z,43.30
2019-02-19T14:28:21.348Z,42.80
2019-02-19T14:30:58.533Z,43.50
2019-02-19T14:33:32.462Z,43.70
2019-02-19T14:36:00.569Z,43.60
2019-02-19T14:38:31.396Z,43.60
2019-02-19T14:40:59.484Z,43.60
2019-02-19T14:43:36.681Z,43.90
2019-02-19T14:46:10.764Z,43.80
2019-02-19T14:48:38.880Z,43.90
2019-02-19T14:51:22.496Z,44.50
2019-02-19T14:53:56.741Z,44.20
2019-02-19T14:56:27.372Z,44.60
2019-02-19T14:59:01.052Z,44.60
2019-02-19T15:01:44.477Z,45.20
2019-02-19T15:04:24.435Z,45.10
2019-02-19T15:07:01.358Z,44.50
2019-02-19T15:09:29.439Z,45.20
2019-02-19T15:12:00.105Z,46.40
2019-02-19T15:14:40.053Z,47.90
2019-02-19T15:17:16.730Z,48.20
2019-02-19T15:19:47.659Z,48.50
2019-02-19T15:22:18.532Z,48.20
2019-02-19T15:24:46.629Z,48.40
2019-02-19T15:27:29.960Z,48.60
2019-02-19T15:30:03.841Z,48.90
2019-02-19T15:32:48.489Z,49.20
2019-02-19T15:35:34.821Z,49.10
2019-02-19T15:38:08.713Z,48.90
2019-02-19T15:40:36.942Z,49.30
2019-02-19T15:43:21.719Z,49.40
2019-02-19T15:46:08.061Z,50.00
2019-02-19T15:48:48.255Z,50.50
2019-02-19T15:51:22.409Z,51.00
2019-02-19T15:53:56.340Z,51.40
2019-02-19T15:56:24.442Z,51.80
2019-02-19T15:59:09.212Z,51.80
2019-02-19T16:01:43.355Z,52.20
2019-02-19T16:04:11.533Z,52.30
2019-02-19T16:06:51.493Z,52.40
2019-02-19T16:09:22.125Z,52.40
2019-02-19T16:12:02.118Z,52.50
2019-02-19T16:14:33.042Z,52.80
2019-02-19T16:17:12.940Z,53.10
2019-02-19T16:19:43.526Z,53.40
2019-02-19T16:22:14.635Z,53.90
2019-02-19T16:24:59.504Z,54.20
2019-02-19T16:27:44.324Z,54.40
2019-02-19T16:30:13.590Z,54.80
2019-02-19T16:32:42.665Z,55.20
2019-02-19T16:35:23.552Z,56.10
2019-02-19T16:37:52.011Z,56.30
2019-02-19T16:40:29.337Z,56.40
2019-02-19T16:43:13.240Z,55.80
2019-02-19T16:45:41.718Z,56.30
2019-02-19T16:48:22.513Z,56.10
2019-02-19T16:50:53.493Z,56.20
2019-02-19T16:53:21.833Z,56.90
2019-02-19T16:56:08.475Z,56.90
2019-02-19T16:58:36.772Z,57.30
2019-02-19T17:01:14.708Z,57.50
2019-02-19T17:03:49.016Z,57.70
2019-02-19T17:06:21.469Z,57.90
2019-02-19T17:08:52.592Z,58.10
2019-02-19T17:11:23.045Z,58.40
2019-02-19T17:13:58.154Z,58.40
2019-02-19T17:16:33.236Z,58.50
2019-02-19T17:19:04.157Z,58.30
2019-02-19T17:21:47.371Z,58.70
2019-02-19T17:24:18.489Z,59.00
2019-02-19T17:26:49.593Z,59.30
2019-02-19T17:29:32.770Z,59.20
2019-02-19T17:32:03.686Z,60.30
2019-02-19T17:34:40.497Z,59.50
2019-02-19T17:37:14.671Z,59.60
2019-02-19T17:39:45.525Z,59.60
2019-02-19T17:42:13.641Z,60.00
2019-02-19T17:44:50.813Z,60.20
2019-02-19T17:47:38.024Z,60.40
2019-02-19T17:50:25.897Z,60.60
2019-02-19T17:52:56.776Z,60.90
2019-02-19T17:55:42.020Z,60.90
2019-02-19T17:58:22.744Z,60.90
2019-02-19T18:01:06.872Z,60.90
2019-02-19T18:03:37.888Z,61.10
2019-02-19T18:06:18.268Z,61.10
2019-02-19T18:08:46.353Z,61.20
2019-02-19T18:11:17.229Z,61.50
2019-02-19T18:13:45.358Z,61.40
2019-02-19T18:16:28.427Z,61.40
2019-02-19T18:18:54.789Z,61.50
2019-02-19T18:21:21.012Z,61.80
2019-02-19T18:23:47.225Z,61.80
2019-02-19T18:26:13.443Z,62.20
2019-02-19T18:28:40.754Z,62.20
2019-02-19T18:31:07.930Z,62.70
2019-02-19T18:33:34.124Z,62.60
2019-02-19T18:36:00.327Z,62.90
2019-02-19T18:38:27.636Z,62.90
2019-02-19T18:40:53.815Z,62.90
2019-02-19T18:43:20.119Z,62.90
2019-02-19T18:45:46.340Z,63.20
2019-02-19T18:48:12.511Z,63.30
2019-02-19T18:50:38.779Z,63.50
2019-02-19T18:53:05.326Z,63.80
2019-02-19T18:55:31.734Z,64.40
2019-02-19T18:57:58.100Z,64.40
2019-02-19T19:00:24.300Z,64.20
2019-02-19T19:02:50.469Z,64.20
2019-02-19T19:05:16.671Z,64.80
2019-02-19T19:07:43.074Z,65.10
2019-02-19T19:10:10.281Z,65.40
2019-02-19T19:12:36.590Z,66.40
2019-02-19T19:15:05.521Z,65.90
2019-02-19T19:17:33.404Z,66.10
2019-02-19T19:19:59.633Z,66.30
2019-02-19T19:22:25.824Z,66.70
2019-02-19T19:24:51.980Z,66.80
2019-02-19T19:27:18.224Z,67.30
2019-02-19T19:29:44.382Z,67.70
2019-02-19T19:32:11.556Z,68.50
2019-02-19T19:34:37.821Z,67.80
2019-02-19T19:37:04.025Z,68.10
2019-02-19T19:39:30.510Z,69.10
2019-02-19T19:41:56.675Z,69.20
2019-02-19T19:44:24.858Z,69.60
2019-02-19T19:46:50.938Z,70.60
2019-02-19T19:49:17.140Z,71.00
2019-02-19T19:51:43.311Z,71.00
2019-02-19T19:54:09.541Z,71.30
2019-02-19T19:56:35.832Z,71.40
2019-02-19T19:59:02.087Z,71.10
2019-02-19T20:01:28.450Z,71.20
2019-02-19T20:03:54.672Z,71.50
2019-02-19T20:06:20.875Z,71.90
2019-02-19T20:08:47.246Z,72.10
2019-02-19T20:11:14.947Z,72.40
2019-02-19T20:13:41.160Z,72.60
2019-02-19T20:16:07.363Z,73.00
2019-02-19T20:18:39.062Z,73.20
2019-02-19T20:21:02.950Z,73.70
2019-02-19T20:23:29.177Z,74.30
2019-02-19T20:25:55.436Z,74.80
2019-02-19T20:28:22.740Z,75.50
2019-02-19T20:30:49.083Z,76.00
2019-02-19T20:33:15.262Z,76.20
2019-02-19T20:35:41.777Z,76.60
2019-02-19T20:38:07.964Z,77.20
2019-02-19T20:40:35.253Z,77.40
2019-02-19T20:43:01.546Z,77.50
2019-02-19T20:45:27.922Z,77.50
2019-02-19T20:47:54.421Z,77.50
2019-02-19T20:50:20.621Z,77.80
2019-02-19T20:52:48.229Z,77.70
2019-02-19T20:55:14.700Z,77.70
2019-02-19T20:57:41.000Z,78.10
2019-02-19T21:00:15.999Z,78.10
2019-02-19T21:02:44.151Z,77.70
2019-02-19T21:05:10.694Z,77.50
2019-02-19T21:07:36.989Z,78.60
2019-02-19T21:10:10.231Z,77.40
2019-02-19T21:12:37.320Z,78.30
2019-02-19T21:15:04.857Z,78.90
2019-02-19T21:17:31.299Z,79.40
2019-02-19T21:19:58.630Z,79.90
2019-02-19T21:22:24.844Z,80.10
2019-02-19T21:24:51.287Z,81.10
2019-02-19T21:27:17.637Z,81.10
2019-02-19T21:29:44.058Z,81.30
2019-02-19T21:32:10.259Z,81.50
2019-02-19T21:34:36.424Z,81.50
2019-02-19T21:37:04.180Z,82.60
2019-02-19T21:39:30.390Z,82.50
2019-02-19T21:41:56.664Z,82.00
2019-02-19T21:44:22.913Z,82.20
2019-02-19T21:46:49.292Z,82.80
2019-02-19T21:49:15.492Z,82.80
2019-02-19T21:51:41.676Z,82.70
2019-02-19T21:54:07.838Z,84.20
2019-02-19T21:56:34.025Z,85.30
2019-02-19T21:59:00.397Z,85.80
2019-02-19T22:01:27.219Z,85.90
2019-02-19T22:03:53.489Z,86.10
2019-02-19T22:06:20.192Z,85.90
2019-02-19T22:08:47.500Z,85.90
2019-02-19T22:11:13.676Z,85.40
2019-02-19T22:13:39.860Z,85.40
2019-02-19T22:16:06.122Z,84.90
2019-02-19T22:18:32.408Z,84.30
2019-02-19T22:21:04.451Z,84.00
2019-02-19T22:23:30.651Z,83.60
2019-02-19T22:25:56.894Z,83.70
2019-02-19T22:28:24.060Z,83.10
2019-02-19T22:30:50.237Z,83.00
2019-02-19T22:33:19.336Z,83.40
2019-02-19T22:35:45.510Z,83.50
2019-02-19T22:38:11.692Z,83.20
2019-02-19T22:40:37.865Z,83.20
2019-02-19T22:43:05.810Z,83.00
2019-02-19T22:45:31.984Z,83.60
2019-02-19T22:47:58.211Z,84.20
2019-02-19T22:50:25.515Z,84.30
2019-02-19T22:52:51.729Z,83.90
2019-02-19T22:55:23.059Z,84.30
2019-02-19T22:57:49.258Z,83.90
2019-02-19T23:00:38.418Z,83.70
2019-02-19T23:03:06.482Z,83.50
2019-02-19T23:05:33.288Z,83.90
2019-02-19T23:07:59.470Z,83.80
2019-02-19T23:10:26.022Z,83.70
2019-02-19T23:12:52.223Z,84.00
2019-02-19T23:15:18.392Z,84.20
2019-02-19T23:17:44.591Z,84.20
2019-02-19T23:20:10.766Z,83.90
2019-02-19T23:22:36.973Z,83.60
2019-02-19T23:25:04.372Z,83.80
2019-02-19T23:27:30.962Z,83.30
2019-02-19T23:29:58.247Z,83.80
2019-02-19T23:32:44.407Z,85.20
2019-02-19T23:35:15.266Z,85.10
2019-02-19T23:37:41.468Z,84.60
2019-02-19T23:40:07.626Z,83.70
2019-02-19T23:42:33.801Z,83.60
2019-02-19T23:44:59.978Z,83.10
2019-02-19T23:47:26.154Z,83.40
2019-02-19T23:49:52.332Z,83.10
2019-02-19T23:52:18.525Z,84.00
2019-02-19T23:54:44.714Z,83.60
2019-02-19T23:57:10.872Z,84.70
2019-02-19T23:59:37.076Z,85.00
